• Join FlightAware (Why Join?)
  • Login
  • US Flag 
06:56AM EDT


 

Airport Tracker/Info


-or-


 

Live Flight TrackerFlight Track Log ✈ AFL150 ✈ 06-Feb-2014 ✈ UUEE / SVO - MUHA / HAV

Flight Track Log - Related Links

Times and Time Zones

All times are in EST time to prevent confusion due to time zone crossing. See the AFL150 flight status page for this flight to view local times or setup timezone preferences in your user account.

Time Position Orientation Groundspeed Altitude Reporting Facility
EST Latitude Longitude Course Direction KTS MPH feet Rate Location/Type
04:48AM 56.0506 37.1448 307° West  Level Estimated
04:49AM 56.1238 36.9678 307° West  Level Estimated
04:50AM 56.1967 36.7901 306° West  Level Estimated
04:51AM 56.2693 36.6118 306° West  Level Estimated
04:52AM 56.3417 36.4328 306° West  Level Estimated
04:53AM 56.4138 36.2531 306° West  Level Estimated
04:54AM 56.4856 36.0727 306° West  Level Estimated
04:55AM 56.5573 35.8916 306° West  Level Estimated
04:56AM 56.6286 35.7099 306° West  Level Estimated
04:57AM 56.6996 35.5275 305° West  Level Estimated
04:58AM 56.7705 35.3443 305° West  Level Estimated
04:59AM 56.8410 35.1605 305° West  Level Estimated
05:00AM 56.9112 34.9760 305° West  Level Estimated
05:01AM 56.9812 34.7908 305° West  Level Estimated
05:02AM 57.0509 34.6049 305° West  Level Estimated
05:03AM 57.1204 34.4183 304° West  Level Estimated
05:04AM 57.1895 34.2310 304° West  Level Estimated
05:05AM 57.2584 34.0430 304° West  Level Estimated
05:06AM 57.3270 33.8543 304° West  Level Estimated
05:07AM 57.3953 33.6649 304° West  Level Estimated
05:08AM 57.4634 33.4748 304° West  Level Estimated
05:09AM 57.5311 33.2840 304° West  Level Estimated
05:10AM 57.5985 33.0924 303° West  Level Estimated
05:11AM 57.6657 32.9002 303° West  Level Estimated
05:12AM 57.7326 32.7073 303° West  Level Estimated
05:13AM 57.7991 32.5136 303° West  Level Estimated
05:14AM 57.8654 32.3192 303° West  Level Estimated
05:15AM 57.9314 32.1241 303° West  Level Estimated
05:16AM 57.9971 31.9283 302° West  Level Estimated
05:17AM 58.0625 31.7318 302° West  Level Estimated
05:18AM 58.1275 31.5345 302° West  Level Estimated
05:18AM 56.5242 31.4550 302° West 426 490 34,000  Level FlightAware ADS-B (EVDA / DGP)
05:19AM 56.5537 31.1864 281° West 435 501 34,000  Level FlightAware ADS-B (EVDA / DGP)
05:20AM 56.6109 30.9615 295° West 444 511 34,000  Level FlightAware ADS-B (EVDA / DGP)
05:21AM 56.6835 30.7888 307° West 450 518 34,000  Level FlightAware ADS-B (EVDA / DGP)
05:22AM 56.7579 30.6092 307° West 445 512 34,000  Level FlightAware ADS-B (EVDA / DGP)
05:23AM 56.8232 30.4375 305° West 444 511 34,000  Level FlightAware ADS-B (EVDA / DGP)
05:26AM 57.0400 29.8452 301° West 444 511 34,000  Level FlightAware ADS-B (EVDA / DGP)
05:27AM 57.1153 29.6362 304° West 445 512 34,000  Level FlightAware ADS-B (EVDA / DGP)
05:28AM 57.1824 29.4479 303° West 447 514 34,000  Level FlightAware ADS-B (EVDA / DGP)
05:29AM 57.2457 29.2694 303° West 447 514 34,000  Level FlightAware ADS-B (EVDA / DGP)
05:30AM 57.3141 29.0749 303° West 449 517 34,000  Level FlightAware ADS-B (EVDA / DGP)
05:31AM 57.3805 28.8849 303° West 452 520 34,000  Level FlightAware ADS-B (EVDA / DGP)
05:32AM 57.4501 28.6838 303° West 453 521 34,000  Level FlightAware ADS-B (EVDA / DGP)
05:33AM 57.5207 28.4783 303° West 454 522 34,000  Level FlightAware ADS-B (EVDA / DGP)
05:34AM 57.5855 28.2882 303° West 453 521 34,000  Level FlightAware ADS-B (EVDA / DGP)
05:35AM 57.6333 28.1471 302° West 453 521 34,000  Level FlightAware ADS-B (EVDA / DGP)
05:37AM 57.7865 27.6891 302° West 450 518 34,000  Level FlightAware ADS-B (EVDA / DGP)
05:38AM 57.8448 27.4944 299° West 442 509 34,000  Level FlightAware ADS-B (EVDA / DGP)
05:39AM 57.8878 27.2720 290° West 442 509 34,000  Level FlightAware ADS-B (EVDA / DGP)
05:40AM 57.9291 27.0536 290° West 443 510 34,000  Level FlightAware ADS-B (EVDA / DGP)
05:41AM 57.9698 26.8364 290° West 449 517 34,000  Level FlightAware ADS-B (EVDA / DGP)
05:42AM 58.0054 26.6443 289° West 448 516 34,000  Level FlightAware ADS-B (EVDA / DGP)
05:43AM 58.0504 26.3992 289° West 449 517 34,000  Level FlightAware ADS-B (EVDA / DGP)
05:44AM 58.0911 26.1742 289° West 452 520 34,000  Level FlightAware ADS-B (EVDA / DGP)
05:45AM 58.1315 25.9485 289° West 454 522 34,000  Level FlightAware ADS-B (EVDA / DGP)
05:46AM 58.1687 25.7379 289° West 454 522 34,000  Level FlightAware ADS-B (EVDA / DGP)
05:47AM 58.2104 25.4989 288° West 454 522 34,000  Level FlightAware ADS-B (EVDA / DGP)
05:48AM 58.2428 25.3112 288° West 452 520 34,000  Level FlightAware ADS-B (EVDA / DGP)
06:03AM 58.6174 22.9824 294° West 449 517 34,000  Level FlightAware ADS-B (ESKB)
06:09AM 58.9687 20.6293 294° West 449 517 34,000  Level FlightAware ADS-B (ESKB)
06:09AM 58.9944 20.4734 288° West 454 522 34,000  Level FlightAware ADS-B (ESKB)
06:10AM 59.0174 20.3331 288° West 454 522 34,000  Level FlightAware ADS-B (ESKB)
06:11AM 59.0439 20.1702 288° West 454 522 34,000  Level FlightAware ADS-B (ESKB)
06:11AM 59.0693 20.0130 287° West 456 525 34,000  Level FlightAware ADS-B (ESKB)
06:12AM 59.0937 19.8599 287° West 456 525 34,000  Level FlightAware ADS-B (ESKB)
06:13AM 59.1195 19.6971 287° West 457 526 34,000  Level FlightAware ADS-B (ESKB)
06:13AM 59.1444 19.5379 287° West 459 528 34,000  Level FlightAware ADS-B (ESKB)
06:14AM 59.1688 19.3815 287° West 458 527 34,000  Level FlightAware ADS-B (ESKB)
06:15AM 59.1930 19.2241 287° West 459 528 34,000  Level FlightAware ADS-B (ESKB)
06:15AM 59.2168 19.0679 287° West 459 528 34,000  Level FlightAware ADS-B (ESKB)
06:16AM 59.2411 18.9069 287° West 458 527 34,000  Level FlightAware ADS-B (ESKB)
06:17AM 59.2651 18.7470 286° West 456 525 34,000  Level FlightAware ADS-B (ESKB)
06:17AM 59.2882 18.5907 286° West 456 525 34,000  Level FlightAware ADS-B (ESKB)
06:18AM 59.3114 18.4325 286° West 455 524 34,000  Level FlightAware ADS-B (ESKB)
06:19AM 59.3338 18.2787 286° West 453 521 34,000  Level FlightAware ADS-B (ESKB)
06:19AM 59.3561 18.1240 286° West 454 522 34,000  Level FlightAware ADS-B (ESKB)
06:20AM 59.3781 17.9694 286° West 451 519 34,000  Level FlightAware ADS-B (ESKB)
06:21AM 59.4010 17.8075 286° West 447 514 34,000  Level FlightAware ADS-B (ESKB)
06:21AM 59.4209 17.6649 285° West 445 512 34,000  Level FlightAware ADS-B (ESKB)
06:22AM 59.4440 17.4981 285° West 442 509 34,000  Level FlightAware ADS-B (ESKB)
06:23AM 59.4603 17.3793 285° West 442 509 34,000  Level FlightAware ADS-B (ESKB)
06:23AM 59.4868 17.1836 285° West 442 509 34,000  Level FlightAware ADS-B (ESKB)
06:24AM 59.5052 17.0468 285° West 443 510 34,000  Level FlightAware ADS-B (ESKB)
06:25AM 59.5281 16.8759 285° West 445 512 34,000  Level FlightAware ADS-B (ESKB)
06:25AM 59.5487 16.7186 285° West 447 514 34,000  Level FlightAware ADS-B (ESKB)
06:26AM 59.5685 16.5674 285° West 448 516 34,000  Level FlightAware ADS-B (ESKB)
06:27AM 59.5898 16.4021 284° West 450 518 34,000  Level FlightAware ADS-B (ESKB)
06:27AM 59.6092 16.2494 284° West 451 519 34,000  Level FlightAware ADS-B (ESKB)
06:28AM 59.6280 16.1007 284° West 452 520 34,000  Level FlightAware ADS-B
06:28AM 59.6380 16.0213 284° West 454 522 34,000  Level FlightAware ADS-B
06:29AM 59.6491 15.9327 284° West 455 524 34,000  Level FlightAware ADS-B
06:29AM 59.6648 15.8058 284° West 456 525 34,000  Level FlightAware ADS-B
06:30AM 59.6806 15.6766 284° West 457 526 34,000  Level FlightAware ADS-B
06:31AM 59.7034 15.4883 284° West 458 527 34,000  Level FlightAware ADS-B
06:31AM 59.7183 15.3644 283° West 460 529 34,000  Level FlightAware ADS-B
06:32AM 59.7402 15.1805 283° West 460 529 34,000  Level FlightAware ADS-B
06:32AM 59.7545 15.0580 283° West 459 528 34,000  Level FlightAware ADS-B
06:33AM 59.7687 14.9353 283° West 459 528 34,000  Level FlightAware ADS-B
06:33AM 59.7832 14.8098 283° West 460 529 34,000  Level FlightAware ADS-B
06:34AM 59.8040 14.6269 283° West 463 533 34,000  Level FlightAware ADS-B
06:35AM 59.8172 14.4996 282° West 461 531 34,000  Level FlightAware ADS-B
06:35AM 59.8356 14.3131 281° West 461 531 34,000  Level FlightAware ADS-B
06:36AM 59.8480 14.1883 281° West 460 529 34,000  Level FlightAware ADS-B
06:36AM 59.8600 14.0656 281° West 461 531 34,000  Level FlightAware ADS-B
06:37AM 59.8725 13.9383 281° West 460 529 34,000  Level FlightAware ADS-B
06:38AM 59.8906 13.7513 281° West 460 529 34,000  Level FlightAware ADS-B
06:38AM 59.9028 13.6231 281° West 458 527 34,000  Level FlightAware ADS-B
06:39AM 59.9166 13.4762 281° West 457 526 34,000  Level FlightAware ADS-B
06:39AM 59.9311 13.3199 281° West 455 524 34,000  Level FlightAware ADS-B
06:41AM 59.9659 12.9356 280° West 453 521 34,000 60 Level FlightAware ADS-B
07:02AM 60.6423 7.6107 282° West 457 526 36,000 60 Climbing FlightAware ADS-B (EGBP)
07:03AM 60.6600 7.4397 282° West 463 533 36,000  Level FlightAware ADS-B (EGBP)
07:04AM 60.6773 7.2734 282° West 464 534 36,000  Level FlightAware ADS-B (EGBP)
07:04AM 60.6956 7.0941 282° West 465 535 36,000  Level FlightAware ADS-B (EGBP)
07:05AM 60.7129 6.9220 282° West 461 531 36,000  Level FlightAware ADS-B (EGBP)
07:06AM 60.7294 6.7546 281° West 459 528 36,000  Level FlightAware ADS-B (EGBP)
07:06AM 60.7458 6.5857 281° West 462 532 36,000  Level FlightAware ADS-B (EGBP)
07:07AM 60.7623 6.4153 281° West 461 531 36,000  Level FlightAware ADS-B (EGBP)
07:08AM 60.7787 6.2423 281° West 461 531 36,000  Level FlightAware ADS-B (EGBP)
07:08AM 60.7941 6.0780 281° West 462 532 36,000  Level FlightAware ADS-B (EGBP)
07:09AM 60.8106 5.8982 281° West 461 531 36,000  Level FlightAware ADS-B (EGBP)
07:10AM 60.8259 5.7305 281° West 464 534 36,000  Level FlightAware ADS-B (EGBP)
07:10AM 60.8410 5.5615 281° West 463 533 36,000  Level FlightAware ADS-B (EGBP)
07:13AM 60.8844 5.0432 280° West  Level Estimated
07:14AM 60.9045 4.7940 280° West  Level Estimated
07:15AM 60.9241 4.5444 279° West  Level Estimated
07:16AM 60.9433 4.2946 279° West  Level Estimated
07:17AM 60.9621 4.0444 279° West  Level Estimated
07:18AM 60.9803 3.7940 279° West  Level Estimated
07:19AM 60.9981 3.5433 278° West  Level Estimated
07:20AM 61.0154 3.2923 278° West  Level Estimated
07:21AM 61.0323 3.0410 278° West  Level Estimated
07:22AM 61.0486 2.7894 278° West  Level Estimated
07:23AM 61.0646 2.5377 278° West  Level Estimated
07:24AM 61.0800 2.2856 277° West  Level Estimated
07:25AM 61.0950 2.0333 277° West  Level Estimated
07:26AM 61.1095 1.7808 277° West  Level Estimated
07:27AM 61.1236 1.5280 277° West  Level Estimated
07:28AM 61.1371 1.2751 276° West  Level Estimated
07:29AM 61.1502 1.0219 276° West  Level Estimated
07:30AM 61.1628 0.7685 276° West  Level Estimated
07:31AM 61.1750 0.5149 276° West  Level Estimated
07:32AM 61.1866 0.2611 276° West  Level Estimated
07:33AM 61.1978 0.0072 275° West  Level Estimated
07:34AM 61.2086 -0.2470 275° West  Level Estimated
07:35AM 61.2188 -0.5013 275° West  Level Estimated
07:36AM 61.2286 -0.7558 275° West  Level Estimated
07:37AM 61.2379 -1.0104 274° West  Level Estimated
07:38AM 61.2467 -1.2651 274° West  Level Estimated
07:39AM 61.2550 -1.5201 274° West  Level Estimated
07:40AM 61.2629 -1.7751 274° West  Level Estimated
07:41AM 61.2703 -2.0303 274° West  Level Estimated
07:42AM 61.2772 -2.2856 273° West  Level Estimated
07:43AM 61.2836 -2.5410 273° West  Level Estimated
07:44AM 61.2895 -2.7964 273° West  Level Estimated
07:45AM 61.2950 -3.0520 273° West  Level Estimated
07:46AM 61.3000 -3.3077 272° West  Level Estimated
07:47AM 61.3045 -3.5635 272° West  Level Estimated
07:48AM 61.3085 -3.8193 272° West  Level Estimated
07:49AM 61.3120 -4.0752 272° West  Level Estimated
07:50AM 61.3151 -4.3311 272° West  Level Estimated
07:51AM 61.3176 -4.5871 271° West  Level Estimated
07:52AM 61.3197 -4.8431 271° West  Level Estimated
07:53AM 61.3213 -5.0991 271° West  Level Estimated
07:54AM 61.3225 -5.3552 271° West  Level Estimated
07:55AM 61.3231 -5.6113 270° West  Level Estimated
07:56AM 61.3233 -5.8674 270° West  Level Estimated
07:57AM 61.3230 -6.1235 270° West  Level Estimated
07:58AM 61.3222 -6.3795 270° West  Level Estimated
07:59AM 61.3209 -6.6356 270° West  Level Estimated
08:00AM 61.3191 -6.8916 269° West  Level Estimated
08:01AM 61.3169 -7.1476 269° West  Level Estimated
08:02AM 61.3142 -7.4036 269° West  Level Estimated
08:03AM 61.3109 -7.6595 269° West  Level Estimated
08:04AM 61.3073 -7.9154 268° West  Level Estimated
08:05AM 61.3031 -8.1712 268° West  Level Estimated
08:06AM 61.2984 -8.4269 268° West  Level Estimated
08:07AM 61.2933 -8.6826 268° West  Level Estimated
08:08AM 61.2877 -8.9381 267° West  Level Estimated
08:09AM 61.2816 -9.1936 267° West  Level Estimated
08:10AM 61.2750 -9.4490 267° West  Level Estimated
08:11AM 61.2680 -9.7042 267° West  Level Estimated
08:12AM 61.2604 -9.9593 267° West  Level Estimated
08:13AM 61.2524 -10.2143 266° West  Level Estimated
08:14AM 61.2439 -10.4692 266° West  Level Estimated
08:15AM 61.2350 -10.7239 266° West  Level Estimated
08:16AM 61.2255 -10.9785 266° West  Level Estimated
08:17AM 61.2156 -11.2329 265° West  Level Estimated
08:18AM 61.2052 -11.4872 265° West  Level Estimated
08:19AM 61.1944 -11.7413 265° West  Level Estimated
08:20AM 61.1830 -11.9952 265° West  Level Estimated
08:21AM 61.1712 -12.2489 265° West  Level Estimated
08:22AM 61.1589 -12.5024 264° West  Level Estimated
08:23AM 61.1461 -12.7558 264° West  Level Estimated
08:24AM 61.1329 -13.0089 264° West  Level Estimated
08:25AM 61.1191 -13.2618 264° West  Level Estimated
08:26AM 61.1050 -13.5145 263° West  Level Estimated
08:27AM 61.0903 -13.7669 263° West  Level Estimated
08:28AM 61.0752 -14.0191 263° West  Level Estimated
08:29AM 61.0596 -14.2711 263° West  Level Estimated
08:30AM 61.0435 -14.5228 263° West  Level Estimated
08:31AM 61.0270 -14.7743 262° West  Level Estimated
08:32AM 61.0100 -15.0255 262° West  Level Estimated
08:33AM 60.9925 -15.2764 262° West  Level Estimated
08:34AM 60.9746 -15.5270 262° West  Level Estimated
08:35AM 60.9562 -15.7774 261° West  Level Estimated
08:36AM 60.9373 -16.0274 261° West  Level Estimated
08:37AM 60.9180 -16.2772 261° West  Level Estimated
08:38AM 60.8982 -16.5266 261° West  Level Estimated
08:39AM 60.8779 -16.7758 261° West  Level Estimated
08:40AM 60.8572 -17.0246 260° West  Level Estimated
08:41AM 60.8360 -17.2731 260° West  Level Estimated
08:42AM 60.8144 -17.5213 260° West  Level Estimated
08:43AM 60.7923 -17.7691 260° West  Level Estimated
08:44AM 60.7698 -18.0166 260° West  Level Estimated
08:45AM 60.7468 -18.2637 259° West  Level Estimated
08:46AM 60.7234 -18.5105 259° West  Level Estimated
08:47AM 60.6995 -18.7569 259° West  Level Estimated
08:48AM 60.6751 -19.0029 259° West  Level Estimated
08:49AM 60.6503 -19.2486 258° West  Level Estimated
08:50AM 60.6251 -19.4939 258° West  Level Estimated
08:51AM 60.5994 -19.7387 258° West  Level Estimated
08:52AM 60.5732 -19.9832 258° West  Level Estimated
08:53AM 60.5466 -20.2273 258° West  Level Estimated
08:54AM 60.5196 -20.4710 257° West  Level Estimated
08:55AM 60.4921 -20.7143 257° West  Level Estimated
08:56AM 60.4642 -20.9572 257° West  Level Estimated
08:57AM 60.4358 -21.1996 257° West  Level Estimated
08:58AM 60.4070 -21.4417 257° West  Level Estimated
08:59AM 60.3778 -21.6833 256° West  Level Estimated
09:00AM 60.3481 -21.9244 256° West  Level Estimated
09:01AM 60.3180 -22.1651 256° West  Level Estimated
09:02AM 60.2874 -22.4054 256° West  Level Estimated
09:03AM 60.2565 -22.6452 256° West  Level Estimated
09:04AM 60.2251 -22.8846 255° West  Level Estimated
09:05AM 60.1932 -23.1235 255° West  Level Estimated
09:06AM 60.1609 -23.3619 255° West  Level Estimated
09:07AM 60.1282 -23.5999 255° West  Level Estimated
09:08AM 60.0951 -23.8374 254° West  Level Estimated
09:09AM 60.0616 -24.0744 254° West  Level Estimated
09:10AM 60.0276 -24.3109 254° West  Level Estimated
09:11AM 59.9932 -24.5469 254° West  Level Estimated
09:12AM 59.9584 -24.7825 254° West  Level Estimated
09:13AM 59.9232 -25.0175 253° West  Level Estimated
09:14AM 59.8875 -25.2521 253° West  Level Estimated
09:15AM 59.8515 -25.4861 253° West  Level Estimated
09:16AM 59.8150 -25.7196 253° West  Level Estimated
09:17AM 59.7781 -25.9526 253° West  Level Estimated
09:18AM 59.7408 -26.1851 252° West  Level Estimated
09:19AM 59.7031 -26.4171 252° West  Level Estimated
09:20AM 59.6650 -26.6485 252° West  Level Estimated
09:21AM 59.6264 -26.8795 252° West  Level Estimated
09:22AM 59.5875 -27.1098 252° West  Level Estimated
09:23AM 59.5481 -27.3397 251° West  Level Estimated
09:24AM 59.5084 -27.5690 251° West  Level Estimated
09:25AM 59.4683 -27.7978 251° West  Level Estimated
09:26AM 59.4277 -28.0260 251° West  Level Estimated
09:27AM 59.3868 -28.2537 251° West  Level Estimated
09:28AM 59.3455 -28.4808 250° West  Level Estimated
09:29AM 59.3037 -28.7074 250° West  Level Estimated
09:30AM 59.2616 -28.9334 250° West  Level Estimated
09:31AM 59.2191 -29.1588 250° West  Level Estimated
09:32AM 59.1762 -29.3837 250° West  Level Estimated
09:33AM 59.1329 -29.6081 249° West  Level Estimated
09:34AM 59.0893 -29.8318 249° West  Level Estimated
09:35AM 59.0452 -30.0550 249° West  Level Estimated
09:36AM 59.0008 -30.2776 249° West  Level Estimated
09:37AM 58.9560 -30.4996 249° West  Level Estimated
09:38AM 58.9108 -30.7211 249° West  Level Estimated
09:39AM 58.8652 -30.9419 248° West  Level Estimated
09:40AM 58.8192 -31.1622 248° West  Level Estimated
09:41AM 58.7729 -31.3819 248° West  Level Estimated
09:42AM 58.7262 -31.6011 248° West  Level Estimated
09:43AM 58.6791 -31.8196 248° West  Level Estimated
09:44AM 58.6317 -32.0375 247° West  Level Estimated
09:45AM 58.5839 -32.2549 247° West  Level Estimated
09:46AM 58.5357 -32.4716 247° West  Level Estimated
09:47AM 58.4872 -32.6878 247° West  Level Estimated
09:48AM 58.4383 -32.9033 247° West  Level Estimated
09:49AM 58.3890 -33.1183 246° West  Level Estimated
09:50AM 58.3394 -33.3326 246° West  Level Estimated
09:51AM 58.2895 -33.5463 246° West  Level Estimated
09:52AM 58.2391 -33.7595 246° West  Level Estimated
09:53AM 58.1884 -33.9720 246° West  Level Estimated
09:54AM 58.1374 -34.1839 246° West  Level Estimated
09:55AM 58.0860 -34.3953 245° Southwest  Level Estimated
09:56AM 58.0343 -34.6060 245° Southwest  Level Estimated
09:57AM 57.9822 -34.8161 245° Southwest  Level Estimated
09:58AM 57.9298 -35.0256 245° Southwest  Level Estimated
09:59AM 57.8770 -35.2344 245° Southwest  Level Estimated
10:00AM 57.8239 -35.4427 244° Southwest  Level Estimated
10:01AM 57.7705 -35.6503 244° Southwest  Level Estimated
10:02AM 57.7167 -35.8574 244° Southwest  Level Estimated
10:03AM 57.6626 -36.0638 244° Southwest  Level Estimated
10:04AM 57.6081 -36.2696 244° Southwest  Level Estimated
10:05AM 57.5533 -36.4748 244° Southwest  Level Estimated
10:06AM 57.4982 -36.6793 243° Southwest  Level Estimated
10:07AM 57.4427 -36.8833 243° Southwest  Level Estimated
10:08AM 57.3869 -37.0866 243° Southwest  Level Estimated
10:09AM 57.3308 -37.2893 243° Southwest  Level Estimated
10:10AM 57.2744 -37.4914 243° Southwest  Level Estimated
10:11AM 57.2176 -37.6928 243° Southwest  Level Estimated
10:12AM 57.1605 -37.8937 242° Southwest  Level Estimated
10:13AM 57.1031 -38.0939 242° Southwest  Level Estimated
10:14AM 57.0454 -38.2935 242° Southwest  Level Estimated
10:15AM 56.9874 -38.4925 242° Southwest  Level Estimated
10:16AM 56.9290 -38.6908 242° Southwest  Level Estimated
10:17AM 56.8704 -38.8886 242° Southwest  Level Estimated
10:18AM 56.8114 -39.0857 241° Southwest  Level Estimated
10:19AM 56.7521 -39.2822 241° Southwest  Level Estimated
10:20AM 56.6925 -39.4780 241° Southwest  Level Estimated
10:21AM 56.6326 -39.6733 241° Southwest  Level Estimated
10:22AM 56.5724 -39.8679 241° Southwest  Level Estimated
10:23AM 56.5119 -40.0619 241° Southwest  Level Estimated
10:24AM 56.4511 -40.2553 240° Southwest  Level Estimated
10:25AM 56.3900 -40.4481 240° Southwest  Level Estimated
10:26AM 56.3286 -40.6402 240° Southwest  Level Estimated
10:27AM 56.2669 -40.8318 240° Southwest  Level Estimated
10:28AM 56.2049 -41.0227 240° Southwest  Level Estimated
10:29AM 56.1426 -41.2130 240° Southwest  Level Estimated
10:30AM 56.0800 -41.4027 239° Southwest  Level Estimated
10:31AM 56.0172 -41.5917 239° Southwest  Level Estimated
10:32AM 55.9540 -41.7802 239° Southwest  Level Estimated
10:33AM 55.8905 -41.9680 239° Southwest  Level Estimated
10:34AM 55.8268 -42.1552 239° Southwest  Level Estimated
10:35AM 55.7628 -42.3418 239° Southwest  Level Estimated
10:36AM 55.6985 -42.5278 239° Southwest  Level Estimated
10:37AM 55.6339 -42.7132 238° Southwest  Level Estimated
10:38AM 55.5691 -42.8980 238° Southwest  Level Estimated
10:39AM 55.5039 -43.0821 238° Southwest  Level Estimated
10:40AM 55.4385 -43.2657 238° Southwest  Level Estimated
10:41AM 55.3729 -43.4486 238° Southwest  Level Estimated
10:42AM 55.3069 -43.6309 238° Southwest  Level Estimated
10:43AM 55.2407 -43.8127 237° Southwest  Level Estimated
10:44AM 55.1742 -43.9938 237° Southwest  Level Estimated
10:45AM 55.1074 -44.1743 237° Southwest  Level Estimated
10:46AM 55.0407 -44.3535 237° Southwest  Level Estimated
10:47AM 54.9736 -44.5322 237° Southwest  Level Estimated
10:48AM 54.9063 -44.7102 237° Southwest  Level Estimated
10:49AM 54.8388 -44.8877 237° Southwest  Level Estimated
10:50AM 54.7710 -45.0646 236° Southwest  Level Estimated
10:51AM 54.7029 -45.2409 236° Southwest  Level Estimated
10:52AM 54.6345 -45.4165 236° Southwest  Level Estimated
10:53AM 54.5660 -45.5916 236° Southwest  Level Estimated
10:54AM 54.4971 -45.7662 236° Southwest  Level Estimated
10:55AM 54.4280 -45.9401 236° Southwest  Level Estimated
10:56AM 54.3587 -46.1134 236° Southwest  Level Estimated
10:57AM 54.2891 -46.2862 235° Southwest  Level Estimated
10:58AM 54.2193 -46.4583 235° Southwest  Level Estimated
10:59AM 54.1492 -46.6299 235° Southwest  Level Estimated
11:00AM 54.0789 -46.8009 235° Southwest  Level Estimated
11:01AM 54.0083 -46.9713 235° Southwest  Level Estimated
11:02AM 53.9375 -47.1412 235° Southwest  Level Estimated
11:02AM 62.0000 -59.9333 234° Southwest 470 541 36,000  Level Montreal Center
11:03AM 53.8665 -47.3104 235° Southwest  Level Estimated
11:03AM 61.9167 -60.1167 226° Southwest 470 541 36,000  Level Montreal Center
11:04AM 53.7952 -47.4791 234° Southwest  Level Estimated
11:04AM 61.8500 -60.3333 237° Southwest 460 529 36,000  Level Montreal Center
11:05AM 53.7237 -47.6472 234° Southwest  Level Estimated
11:05AM 61.7667 -60.5500 231° Southwest 460 529 36,000  Level Montreal Center
11:06AM 53.6520 -47.8148 234° Southwest  Level Estimated
11:06AM 61.6833 -60.8000 235° Southwest 460 529 36,000  Level Montreal Center
11:07AM 53.5800 -47.9818 234° Southwest  Level Estimated
11:07AM 61.6333 -61.0167 244° Southwest 460 529 36,000  Level Montreal Center
11:08AM 61.5500 -61.2333 231° Southwest 460 529 36,000  Level Montreal Center
11:09AM 61.4667 -61.4500 231° Southwest 470 541 36,000  Level Montreal Center
11:10AM 61.3833 -61.6667 231° Southwest 470 541 36,000  Level Montreal Center
11:11AM 61.3167 -61.9167 241° Southwest 470 541 36,000  Level Montreal Center
11:12AM 61.2333 -62.1167 229° Southwest 470 541 36,000  Level Montreal Center
11:13AM 61.1500 -62.3333 231° Southwest 470 541 36,000  Level Montreal Center
11:14AM 61.0667 -62.5833 236° Southwest 470 541 36,000  Level Montreal Center
11:15AM 60.9833 -62.7833 229° Southwest 470 541 36,000  Level Montreal Center
11:16AM 60.9000 -63.0000 232° Southwest 470 541 36,000  Level Montreal Center
11:17AM 60.8167 -63.2000 230° Southwest 490 564 36,000  Level Montreal Center
11:18AM 60.7667 -63.4333 246° West 470 541 36,000  Level Montreal Center
11:19AM 60.6833 -63.6500 232° Southwest 470 541 36,000  Level Montreal Center
11:20AM 60.6000 -63.8500 230° Southwest 470 541 36,000  Level Montreal Center
11:21AM 60.5000 -64.0500 225° Southwest 470 541 36,000  Level Montreal Center
11:22AM 60.4333 -64.2833 240° Southwest 470 541 36,000  Level Montreal Center
11:23AM 60.3333 -64.4833 225° Southwest 470 541 36,000  Level Montreal Center
11:24AM 60.2667 -64.6833 236° Southwest 470 541 36,000  Level Montreal Center
11:25AM 60.1833 -64.8833 230° Southwest 470 541 36,000  Level Montreal Center
11:26AM 60.1000 -65.0833 230° Southwest 460 529 36,000  Level Montreal Center
11:27AM 60.0167 -65.2500 225° Southwest 460 529 36,000  Level Montreal Center
11:28AM 59.9000 -65.4167 216° Southwest 460 529 36,000  Level Montreal Center
11:29AM 59.8167 -65.6167 230° Southwest 460 529 36,000  Level Montreal Center
11:30AM 59.7167 -65.7833 220° Southwest 460 529 36,000  Level Montreal Center
11:31AM 59.6333 -65.9333 222° Southwest 460 529 36,000  Level Montreal Center
11:32AM 59.5333 -66.1000 220° Southwest 460 529 36,000  Level Montreal Center
11:33AM 59.4333 -66.2667 220° Southwest 460 529 36,000  Level Montreal Center
11:33AM 59.3500 -66.4833 233° Southwest 460 529 36,000  Level Gander Center
11:34AM 59.2500 -66.6167 214° Southwest 460 529 36,000  Level Gander Center
11:36AM 59.1500 -66.7667 218° Southwest 450 518 36,000  Level Montreal Center
11:37AM 59.0333 -66.9000 210° Southwest 450 518 36,000  Level Montreal Center
11:38AM 58.9500 -67.0500 223° Southwest 450 518 36,000  Level Montreal Center
11:39AM 58.8500 -67.2333 224° Southwest 450 518 36,000  Level Montreal Center
11:40AM 58.7500 -67.4000 221° Southwest 450 518 36,000  Level Montreal Center
11:41AM 58.6500 -67.5500 218° Southwest 450 518 36,000  Level Montreal Center
11:42AM 58.5667 -67.7000 223° Southwest 450 518 36,000  Level Montreal Center
11:43AM 58.4667 -67.8500 218° Southwest 450 518 36,000  Level Montreal Center
11:44AM 58.3667 -68.0000 218° Southwest 450 518 36,000  Level Montreal Center
11:45AM 58.2667 -68.1500 218° Southwest 450 518 36,000  Level Montreal Center
11:46AM 58.1667 -68.3000 218° Southwest 470 541 36,000  Level Montreal Center
11:47AM 58.0667 -68.4500 218° Southwest 470 541 36,000  Level Montreal Center
11:48AM 57.9667 -68.5667 212° Southwest 460 529 36,000  Level Montreal Center
11:49AM 57.8667 -68.7167 219° Southwest 450 518 36,000  Level Montreal Center
11:50AM 57.7667 -68.8500 215° Southwest 450 518 36,000  Level Montreal Center
11:51AM 57.6833 -68.9667 217° Southwest 440 506 36,000  Level Montreal Center
11:52AM 57.5667 -69.1167 215° Southwest 440 506 36,000  Level Montreal Center
11:53AM 57.4667 -69.2667 219° Southwest 440 506 36,000  Level Montreal Center
11:54AM 57.3667 -69.4000 216° Southwest 440 506 36,000  Level Montreal Center
11:55AM 57.2667 -69.5167 212° Southwest 440 506 36,000  Level Montreal Center
11:56AM 57.1667 -69.6500 216° Southwest 440 506 36,000  Level Montreal Center
11:57AM 57.0833 -69.8000 224° Southwest 440 506 36,000  Level Montreal Center
11:58AM 56.9667 -69.9000 205° Southwest 440 506 36,000  Level Montreal Center
11:59AM 56.8667 -70.0500 219° Southwest 440 506 36,000  Level Montreal Center
12:00PM 56.7667 -70.1500 209° Southwest 440 506 36,000  Level Montreal Center
12:01PM 56.6833 -70.2833 221° Southwest 440 506 36,000  Level Montreal Center
12:02PM 56.5667 -70.4333 215° Southwest 440 506 36,000  Level Montreal Center
12:03PM 56.4667 -70.5333 209° Southwest 440 506 36,000  Level Montreal Center
12:04PM 56.3667 -70.6667 216° Southwest 440 506 36,000  Level Montreal Center
12:05PM 56.2667 -70.8000 217° Southwest 440 506 36,000  Level Montreal Center
12:06PM 56.1500 -70.9167 209° Southwest 440 506 36,000  Level Montreal Center
12:07PM 56.0500 -71.0500 217° Southwest 430 495 36,000  Level Montreal Center
12:08PM 55.9500 -71.1500 209° Southwest 430 495 36,000  Level Montreal Center
12:09PM 55.8667 -71.2833 222° Southwest 440 506 36,000  Level Montreal Center
12:10PM 55.7667 -71.4167 217° Southwest 430 495 36,000  Level Montreal Center
12:11PM 55.6500 -71.5167 206° Southwest 440 506 36,000  Level Montreal Center
12:12PM 55.5500 -71.6500 217° Southwest 440 506 36,000  Level Montreal Center
12:13PM 55.4500 -71.7500 210° Southwest 430 495 36,000  Level Montreal Center
12:14PM 55.3667 -71.8667 219° Southwest 430 495 36,000  Level Montreal Center
12:15PM 55.2667 -71.9667 210° Southwest 430 495 36,000  Level Montreal Center
12:16PM 55.1500 -72.1000 213° Southwest 420 483 36,000  Level Montreal Center
12:17PM 55.0500 -72.2333 217° Southwest 420 483 36,000  Level Montreal Center
12:18PM 54.9500 -72.3333 210° Southwest 420 483 36,000  Level Montreal Center
12:19PM 54.8500 -72.4500 214° Southwest 420 483 36,000  Level Montreal Center
12:20PM 54.7500 -72.5500 210° Southwest 420 483 36,000  Level Montreal Center
12:21PM 54.6667 -72.6667 219° Southwest 420 483 36,000  Level Montreal Center
12:22PM 54.5667 -72.7667 210° Southwest 420 483 36,000  Level Montreal Center
12:23PM 54.4667 -72.9000 218° Southwest 420 483 36,000  Level Montreal Center
12:24PM 54.3667 -72.9833 206° Southwest 420 483 36,000  Level Montreal Center
12:25PM 54.2667 -73.1167 218° Southwest 420 483 36,000  Level Montreal Center
12:26PM 54.1667 -73.2000 206° Southwest 420 483 36,000  Level Montreal Center
12:27PM 54.0667 -73.3167 214° Southwest 430 495 36,000  Level Montreal Center
12:28PM 53.9500 -73.4167 207° Southwest 420 483 36,000  Level Montreal Center
12:29PM 53.8500 -73.5333 215° Southwest 420 483 36,000  Level Montreal Center
12:30PM 53.7500 -73.6500 215° Southwest 420 483 36,000  Level Montreal Center
12:31PM 53.6500 -73.7500 211° Southwest 430 495 36,000  Level Montreal Center
12:32PM 53.5333 -73.8333 203° Southwest 420 483 36,000  Level Montreal Center
12:33PM 53.4333 -73.9333 211° Southwest 430 495 36,000  Level Montreal Center
12:34PM 53.3333 -74.0167 206° Southwest 420 483 36,000  Level Montreal Center
12:35PM 53.2167 -74.1000 203° Southwest 430 495 36,000  Level Montreal Center
12:36PM 53.1167 -74.2000 211° Southwest 430 495 36,000  Level Montreal Center
12:37PM 53.0333 -74.2833 211° Southwest 430 495 36,000  Level Montreal Center
12:38PM 52.9167 -74.3667 203° Southwest 420 483 36,000  Level Montreal Center
12:39PM 52.8000 -74.4333 199° South 420 483 36,000  Level Montreal Center
12:40PM 52.7167 -74.5167 211° Southwest 420 483 36,000  Level Montreal Center
12:41PM 52.6000 -74.6333 211° Southwest 420 483 36,000  Level Montreal Center
12:42PM 52.4833 -74.7000 199° South 420 483 36,000  Level Montreal Center
12:43PM 52.3667 -74.7833 204° Southwest 410 472 36,000  Level Montreal Center
12:44PM 52.2667 -74.8667 207° Southwest 400 460 36,000  Level Montreal Center
12:45PM 52.1667 -74.9500 207° Southwest 420 483 36,000  Level Montreal Center
12:46PM 52.0667 -75.0333 207° Southwest 410 472 36,000  Level Montreal Center
12:47PM 51.9500 -75.1167 204° Southwest 420 483 36,000  Level Montreal Center
12:48PM 51.8500 -75.2000 207° Southwest 410 472 36,000  Level Montreal Center
12:49PM 51.7500 -75.2833 207° Southwest 420 483 36,000  Level Montreal Center
12:50PM 51.6500 -75.3667 207° Southwest 420 483 36,000  Level Montreal Center
12:51PM 51.5500 -75.4500 207° Southwest 420 483 36,000  Level Montreal Center
12:52PM 51.4333 -75.5333 204° Southwest 410 472 36,000  Level Montreal Center
12:53PM 51.3333 -75.5833 197° South 410 472 36,000  Level Montreal Center
12:54PM 51.2333 -75.6667 208° Southwest 410 472 36,000  Level Montreal Center
12:55PM 51.1333 -75.7500 208° Southwest 410 472 36,000  Level Montreal Center
12:56PM 51.0167 -75.8333 204° Southwest 410 472 36,000  Level Montreal Center
12:57PM 50.9167 -75.9167 208° Southwest 420 483 36,000  Level Montreal Center
12:58PM 50.8167 -76.0000 208° Southwest 420 483 36,000  Level Montreal Center
12:59PM 50.7167 -76.0667 203° Southwest 410 472 36,000  Level Montreal Center
01:00PM 50.6000 -76.1500 204° Southwest 410 472 36,000  Level Montreal Center
01:01PM 50.5000 -76.2333 208° Southwest 410 472 36,000  Level Montreal Center
01:02PM 50.4000 -76.2833 198° South 410 472 36,000  Level Montreal Center
01:03PM 50.3000 -76.3667 208° Southwest 410 472 36,000  Level Montreal Center
01:04PM 50.2000 -76.4333 203° Southwest 410 472 36,000  Level Montreal Center
01:05PM 50.0667 -76.5167 202° Southwest 410 472 36,000  Level Montreal Center
01:06PM 49.9667 -76.6000 208° Southwest 410 472 36,000  Level Montreal Center
01:07PM 49.8667 -76.6667 203° Southwest 410 472 36,000  Level Montreal Center
01:08PM 49.7667 -76.7500 208° Southwest 410 472 36,000  Level Montreal Center
01:09PM 49.6667 -76.8167 203° Southwest 410 472 36,000  Level Montreal Center
01:10PM 49.5500 -76.9000 205° Southwest 400 460 36,000  Level Montreal Center
01:11PM 49.4500 -76.9500 198° South 410 472 36,000  Level Montreal Center
01:12PM 49.3333 -77.0167 200° South 430 495 36,000  Level Montreal Center
01:13PM 49.2500 -77.1000 213° Southwest 400 460 36,000  Level Montreal Center
01:14PM 49.1500 -77.1667 204° Southwest 410 472 36,000  Level Montreal Center
01:15PM 49.0333 -77.2500 205° Southwest 420 483 36,000  Level Montreal Center
01:16PM 48.9167 -77.3167 201° Southwest 410 472 36,000  Level Montreal Center
01:17PM 48.8167 -77.4000 209° Southwest 410 472 36,000  Level Montreal Center
01:18PM 48.7167 -77.4667 204° Southwest 410 472 36,000  Level Montreal Center
01:19PM 48.6167 -77.5500 209° Southwest 410 472 36,000  Level Montreal Center
01:20PM 48.5167 -77.5833 192° South 410 472 36,000  Level Montreal Center
01:21PM 48.4000 -77.6667 205° Southwest 410 472 36,000  Level Montreal Center
01:22PM 48.3000 -77.7333 204° Southwest 410 472 36,000  Level Montreal Center
01:23PM 48.2000 -77.8000 204° Southwest 410 472 36,000  Level Montreal Center
01:24PM 48.1000 -77.8833 209° Southwest 410 472 36,000  Level Montreal Center
01:25PM 47.9667 -77.9167 190° South 410 472 36,000  Level Montreal Center
01:26PM 47.8667 -78.0000 209° Southwest 410 472 36,000  Level Montreal Center
01:27PM 47.7667 -78.0667 204° Southwest 410 472 36,000  Level Montreal Center
01:28PM 47.6667 -78.1167 199° South 410 472 36,000  Level Montreal Center
01:29PM 47.5667 -78.1833 204° Southwest 410 472 36,000  Level Montreal Center
01:30PM 47.4500 -78.2500 201° Southwest 410 472 36,000  Level Montreal Center
01:31PM 47.2500 -78.3333 196° South 410 472 36,000  Level Toronto Center
01:32PM 47.1500 -78.3833 199° South 400 460 36,000  Level Toronto Center
01:33PM 47.0667 -78.4333 202° Southwest 400 460 36,000  Level Toronto Center
01:34PM 46.9500 -78.4833 196° South 400 460 36,000  Level Toronto Center
01:35PM 46.8500 -78.5667 210° Southwest 400 460 36,000  Level Toronto Center
01:36PM 46.7500 -78.6167 199° South 400 460 36,000  Level Toronto Center
01:37PM 46.6500 -78.6667 199° South 400 460 36,000  Level Toronto Center
01:38PM 46.5500 -78.7333 205° Southwest 400 460 36,000  Level Toronto Center
01:39PM 46.4333 -78.7833 196° South 410 472 36,000  Level Toronto Center
01:40PM 46.3333 -78.8333 199° South 410 472 36,000  Level Toronto Center
01:41PM 46.2167 -78.9167 206° Southwest 400 460 36,000  Level Toronto Center
01:42PM 46.1167 -78.9667 199° South 400 460 36,000  Level Toronto Center
01:43PM 46.0167 -79.0000 193° South 400 460 36,000  Level Toronto Center
01:44PM 45.9167 -79.0833 210° Southwest 390 449 36,000  Level Toronto Center
01:45PM 45.8167 -79.1333 199° South 390 449 36,000  Level Toronto Center
01:46PM 45.7000 -79.1833 197° South 390 449 36,000  Level Toronto Center
01:47PM 45.6000 -79.2333 199° South 390 449 36,000  Level Toronto Center
01:48PM 45.5000 -79.2833 199° South 400 460 36,000  Level Toronto Center
01:53PM 45.0025 -79.5763 199° South 386 444 36,000  Level FlightAware ADS-B (CYKF)
01:55PM 44.8549 -79.6528 200° South 385 443 36,000  Level FlightAware ADS-B (CYKF)
01:56PM 44.7888 -79.6869 200° South 381 438 36,000  Level FlightAware ADS-B (CYKZ)
01:56PM 44.7210 -79.7218 200° South 379 436 36,000  Level FlightAware ADS-B (CYKZ)
01:57PM 44.6529 -79.7569 200° South 379 436 36,000  Level FlightAware ADS-B (CYKZ)
01:57PM 44.5994 -79.7851 201° Southwest 376 433 36,000  Level FlightAware ADS-B (CYKZ)
01:58PM 44.5389 -79.8307 208° Southwest 362 417 36,000  Level FlightAware ADS-B (CYKZ)
01:59PM 44.4931 -79.8730 213° Southwest 362 417 36,000  Level FlightAware ADS-B (CYKZ)
01:59PM 44.4722 -79.8921 213° Southwest 362 417 36,000  Level FlightAware ADS-B (CYKF)
02:00PM 44.3948 -79.9621 213° Southwest 363 418 36,000  Level FlightAware ADS-B (CYKZ)
02:01PM 44.3363 -80.0146 213° Southwest 361 415 36,000  Level FlightAware ADS-B (CYKZ)
02:01PM 44.2915 -80.0546 213° Southwest 359 413 36,000  Level FlightAware ADS-B (CYKZ)
02:02PM 44.2412 -80.0996 213° Southwest 356 410 36,000  Level FlightAware ADS-B (CYKZ)
02:02PM 44.1809 -80.1534 213° Southwest 360 414 36,000  Level FlightAware ADS-B (CYKF)
02:03PM 44.1357 -80.1936 213° Southwest 360 414 36,000  Level FlightAware ADS-B (CYKZ)
02:05PM 43.9904 -80.3226 213° Southwest 363 418 36,000  Level FlightAware ADS-B (CYKZ)
02:05PM 43.9422 -80.3652 212° Southwest 362 417 36,000  Level FlightAware ADS-B (CYKF)
02:06PM 43.8890 -80.4122 212° Southwest 362 417 36,000  Level FlightAware ADS-B (CYKZ)
02:06PM 43.8366 -80.4581 212° Southwest 361 415 36,000  Level FlightAware ADS-B (CYKZ)
02:07PM 43.7804 -80.5074 212° Southwest 361 415 36,000  Level FlightAware ADS-B (CYKZ)
02:08PM 43.7363 -80.5460 212° Southwest 361 415 36,000  Level FlightAware ADS-B
02:08PM 43.6900 -80.5864 212° Southwest 361 415 36,000  Level FlightAware ADS-B (CYKF)
02:09PM 43.6669 -80.6066 212° Southwest 361 415 36,000  Level FlightAware ADS-B (CYKZ)
02:10PM 43.5782 -80.6839 212° Southwest 362 417 36,000  Level FlightAware ADS-B (CYKF)
02:10PM 43.5298 -80.7260 212° Southwest 364 419 36,000  Level FlightAware ADS-B (CYKZ)
02:11PM 43.4903 -80.7602 212° Southwest 363 418 36,000  Level FlightAware ADS-B (CYKF)
02:11PM 43.4091 -80.8306 212° Southwest 364 419 36,000  Level FlightAware ADS-B (CYKF)
02:12PM 43.3509 -80.8809 212° Southwest 365 420 36,000  Level FlightAware ADS-B (CYKF)
02:13PM 43.3036 -80.9216 212° Southwest 366 421 36,000  Level FlightAware ADS-B (CYKZ)
02:13PM 43.2493 -80.9683 212° Southwest 366 421 36,000  Level FlightAware ADS-B (CYKZ)
02:14PM 43.1930 -81.0164 212° Southwest 364 419 36,000  Level FlightAware ADS-B (CYKZ)
02:15PM 43.1205 -81.0784 212° Southwest 364 419 36,000  Level FlightAware ADS-B (CYKF)
02:16PM 43.0645 -81.1262 212° Southwest 366 421 36,000  Level FlightAware ADS-B (CYKF)
02:16PM 43.0623 -81.1281 212° Southwest 377 434 36,000  Level FlightAware ADS-B (CYKF)
02:16PM 43.0623 -81.1281 212° Southwest 376 433 36,000  Level FlightAware ADS-B (CYKF)
02:17PM 42.9253 -81.2183 206° Southwest 377 434 36,000  Level FlightAware ADS-B (CYKZ)
02:18PM 42.9367 -81.2112 25° Northeast 377 434 36,000  Level FlightAware ADS-B (CYKF)
02:18PM 42.7845 -81.3055 204° Southwest 379 436 36,000  Level FlightAware ADS-B (CYKF)
02:19PM 42.7296 -81.3392 204° Southwest 379 436 36,000  Level FlightAware ADS-B (CYKF)
02:20PM 42.6817 -81.3686 204° Southwest 378 435 36,000  Level FlightAware ADS-B (CYKF)
02:21PM 42.6108 -81.4119 204° Southwest 376 433 36,000  Level FlightAware ADS-B (CYKF)
02:21PM 42.5339 -81.4589 204° Southwest 376 433 36,000  Level FlightAware ADS-B (CYKF)
02:22PM 42.4879 -81.4870 204° Southwest 377 434 36,000  Level FlightAware ADS-B (CYKF)
02:22PM 42.4484 -81.5109 204° Southwest 380 437 36,000  Level FlightAware ADS-B (CYKF)
02:24PM 42.3749 -81.5556 204° Southwest 381 438 36,000  Level FlightAware ADS-B (CYKZ)
02:25PM 42.1464 -81.6942 204° Southwest 379 436 36,000  Level Cleveland Center
02:26PM 42.0486 -81.7531 204° Southwest 381 438 36,000  Level Cleveland Center
02:27PM 41.9503 -81.8108 204° Southwest 383 441 36,000  Level Cleveland Center
02:28PM 41.8539 -81.8686 204° Southwest 380 437 36,000  Level Cleveland Center
02:29PM 41.7572 -81.9264 204° Southwest 378 435 36,000  Level Cleveland Center
02:30PM 41.6617 -81.9825 204° Southwest 374 430 36,000  Level Cleveland Center
02:31PM 41.5658 -82.0397 204° Southwest 376 433 36,000  Level Cleveland Center
02:32PM 41.4550 -82.1044 204° Southwest 372 428 36,000  Level Cleveland Center
02:33PM 41.3600 -82.1592 203° Southwest 371 427 36,000  Level Cleveland Center
02:34PM 41.2581 -82.1964 195° South 379 436 36,000  Level Cleveland Center
02:36PM 41.1561 -82.2339 195° South 378 435 36,000  Level Cleveland Center
02:37PM 41.0536 -82.2700 195° South 379 436 36,000  Level Cleveland Center
02:38PM 40.9331 -82.3133 195° South 381 438 36,000  Level Cleveland Center
02:39PM 40.8322 -82.3500 195° South 375 432 36,000  Level Cleveland Center
02:40PM 40.7317 -82.3847 195° South 372 428 36,000  Level Cleveland Center
02:41PM 40.6308 -82.4208 195° South 371 427 36,000  Level Cleveland Center
02:42PM 40.5239 -82.4589 195° South 372 428 36,000  Level Cleveland Center
02:43PM 40.4219 -82.4942 195° South 376 433 36,000  Level Cleveland Center
02:47PM 39.9822 -82.5997 195° South 388 447 36,000  Level FlightAware ADS-B (KPMH)
02:49PM 39.7699 -82.6144 183° South 387 445 36,000  Level FlightAware ADS-B (KPMH)
02:49PM 39.7256 -82.6174 183° South 384 442 36,000  Level FlightAware ADS-B (KPMH)
02:50PM 39.6421 -82.6229 183° South 381 438 36,000  Level FlightAware ADS-B (KPMH)
02:51PM 39.5807 -82.6271 183° South 380 437 36,000  Level FlightAware ADS-B (KPMH)
02:51PM 39.5077 -82.6320 183° South 381 438 36,000  Level FlightAware ADS-B (KPMH)
02:52PM 39.4549 -82.6355 183° South 380 437 36,000  Level FlightAware ADS-B (KPMH)
02:53PM 39.3819 -82.6403 183° South 376 433 36,000  Level FlightAware ADS-B (KPMH)
02:53PM 39.3251 -82.6441 183° South 374 430 36,000  Level FlightAware ADS-B (KPMH)
02:54PM 39.2530 -82.6489 183° South 373 429 36,000  Level FlightAware ADS-B (KPMH)
02:54PM 39.1980 -82.6526 183° South 372 428 36,000  Level FlightAware ADS-B (KPMH)
02:55PM 39.1266 -82.6573 183° South 369 425 36,000  Level FlightAware ADS-B (KPMH)
02:56PM 39.0712 -82.6610 183° South 367 422 36,000  Level FlightAware ADS-B (KPMH)
02:56PM 39.0029 -82.6656 183° South 368 423 36,000  Level FlightAware ADS-B (KPMH)
02:57PM 38.9482 -82.6692 183° South 369 425 36,000  Level FlightAware ADS-B (KPMH)
02:57PM 38.8804 -82.6736 183° South 368 423 36,000  Level FlightAware ADS-B (KPMH)
02:58PM 38.8180 -82.6777 183° South 369 425 36,000  Level FlightAware ADS-B (KPMH)
02:59PM 38.7480 -82.6823 183° South 369 425 36,000  Level FlightAware ADS-B (KPMH)
02:59PM 38.6943 -82.6859 183° South 370 426 36,000  Level FlightAware ADS-B (KPMH)
03:00PM 38.6320 -82.6900 183° South 372 428 36,000  Level FlightAware ADS-B (KPMH)
03:01PM 38.5592 -82.6953 183° South 369 425 36,000  Level Indianapolis Center
03:02PM 38.4544 -82.7019 183° South 374 430 36,000  Level Indianapolis Center
03:03PM 38.3483 -82.7083 183° South 378 435 36,000  Level Indianapolis Center
03:04PM 38.2247 -82.7169 183° South 380 437 36,000  Level Indianapolis Center
03:05PM 38.1194 -82.7244 183° South 379 436 36,000  Level Indianapolis Center
03:06PM 38.0142 -82.7297 182° South 378 435 36,000  Level Indianapolis Center
03:07PM 37.9081 -82.7372 183° South 379 436 36,000  Level Indianapolis Center
03:08PM 37.8025 -82.7447 183° South 379 436 36,000  Level Indianapolis Center
03:09PM 37.6981 -82.7578 186° South 377 434 36,000  Level Indianapolis Center
03:10PM 37.5903 -82.8083 200° South 356 410 36,000  Level Indianapolis Center
03:11PM 37.5050 -82.8669 209° Southwest 349 402 36,000  Level Indianapolis Center
03:12PM 37.4197 -82.9228 207° Southwest 347 399 36,000  Level Indianapolis Center
03:13PM 37.3342 -82.9783 207° Southwest 346 398 36,000  Level Indianapolis Center
03:14PM 37.2503 -83.0342 208° Southwest 343 395 36,000  Level Indianapolis Center
03:15PM 37.1508 -83.0978 207° Southwest 344 396 36,000  Level Indianapolis Center
03:16PM 37.0669 -83.1525 208° Southwest 343 395 36,000  Level Indianapolis Center
03:17PM 36.9833 -83.2072 208° Southwest 341 392 36,000  Level Indianapolis Center
03:18PM 36.8997 -83.2606 207° Southwest 340 391 36,000  Level Indianapolis Center
03:19PM 36.8025 -83.3242 208° Southwest 339 390 36,000  Level Indianapolis Center
03:20PM 36.7194 -83.3764 207° Southwest 337 388 36,000  Level Indianapolis Center
03:21PM 36.6356 -83.4308 208° Southwest 339 390 36,000  Level Indianapolis Center
03:22PM 36.5531 -83.4833 207° Southwest 335 386 36,000  Level Indianapolis Center
03:23PM 36.4608 -83.5419 207° Southwest 333 383 36,000  Level Indianapolis Center
03:25PM 36.3778 -83.5939 207° Southwest 333 383 36,000  Level Indianapolis Center
03:26PM 36.2939 -83.6469 207° Southwest 335 386 36,000  Level Indianapolis Center
03:27PM 36.2108 -83.7008 208° Southwest 336 387 36,000  Level Indianapolis Center
03:28PM 36.1272 -83.7531 207° Southwest 336 387 36,000  Level Indianapolis Center
03:29PM 36.0414 -83.8103 208° Southwest 340 391 36,000  Level Atlanta Center
03:30PM 35.9581 -83.8617 207° Southwest 340 391 36,000  Level Atlanta Center
03:31PM 35.8706 -83.9056 202° Southwest 345 397 36,000  Level Atlanta Center
03:32PM 35.7744 -83.9286 191° South 345 397 36,000  Level Atlanta Center
03:37PM 35.2215 -84.0601 191° South 345 397 36,000  Level FlightAware ADS-B (KDZJ)
03:37PM 35.1455 -84.0784 191° South 346 398 36,000  Level FlightAware ADS-B (KDZJ)
03:38PM 35.0863 -84.0926 191° South 346 398 36,000  Level FlightAware ADS-B (KDZJ)
03:39PM 35.0282 -84.1064 191° South 345 397 36,000  Level FlightAware ADS-B (KDZJ)
03:40PM 34.9497 -84.1252 191° South 347 399 36,000  Level FlightAware ADS-B (KDZJ)
03:40PM 34.8855 -84.1404 191° South 347 399 36,000  Level FlightAware ADS-B (KDZJ)
03:41PM 34.8272 -84.1543 191° South 347 399 36,000  Level FlightAware ADS-B (KDZJ)
03:41PM 34.7743 -84.1669 191° South 347 399 36,000  Level FlightAware ADS-B (KDZJ)
03:42PM 34.7252 -84.1786 191° South 346 398 36,000  Level FlightAware ADS-B (KDZJ)
03:43PM 34.6608 -84.1938 191° South 346 398 36,000  Level FlightAware ADS-B (KDZJ)
03:43PM 34.6015 -84.2077 191° South 349 402 36,000  Level FlightAware ADS-B (KDZJ)
03:44PM 34.5420 -84.2218 191° South 358 412 36,000  Level FlightAware ADS-B (KDZJ)
03:45PM 34.4658 -84.2399 191° South 360 414 36,000  Level FlightAware ADS-B (KDZJ)
03:45PM 34.4000 -84.2553 191° South 363 418 36,000  Level FlightAware ADS-B (KDZJ)
03:46PM 34.3329 -84.2711 191° South 365 420 36,000  Level FlightAware ADS-B (KDZJ)
03:47PM 34.2676 -84.2865 191° South 365 420 36,000  Level FlightAware ADS-B (KDZJ)
03:47PM 34.1993 -84.3025 191° South 360 414 36,000  Level FlightAware ADS-B (KDZJ)
03:48PM 34.1334 -84.3179 191° South 360 414 36,000  Level FlightAware ADS-B (KDZJ)
03:49PM 34.0676 -84.3333 191° South 362 417 36,000  Level FlightAware ADS-B (KDZJ)
03:49PM 34.0001 -84.3491 191° South 363 418 36,000  Level FlightAware ADS-B (KDZJ)
03:51PM 33.9106 -84.3742 191° South 370 426 36,100 360 Climbing Atlanta Center
03:52PM 33.8064 -84.3964 190° South 376 433 36,900 420 Climbing Atlanta Center
03:53PM 33.7103 -84.4183 191° South 370 426 37,000  Climbing Atlanta Center
03:54PM 33.6119 -84.4353 188° South 370 426 37,000  Level Atlanta Center
03:55PM 33.5014 -84.4375 181° South 378 435 37,000  Level Atlanta Center
03:56PM 33.3950 -84.4344 179° South 385 443 37,000  Level Atlanta Center
03:57PM 33.2864 -84.4339 180° South 385 443 37,000  Level Atlanta Center
03:58PM 33.1758 -84.4333 180° South 385 443 37,000  Level Atlanta Center
03:59PM 33.0694 -84.4306 179° South 385 443 37,000  Level Atlanta Center
04:00PM 32.9608 -84.4275 179° South 385 443 37,000  Level Atlanta Center
04:01PM 32.8522 -84.4244 179° South 391 450 37,000  Level Atlanta Center
04:02PM 32.7542 -84.4167 176° South 397 457 37,000  Level Atlanta Center
04:03PM 32.6456 -84.4164 180° South 397 457 37,000  Level Atlanta Center
04:04PM 32.5308 -84.4133 179° South 402 463 37,000  Level Atlanta Center
04:05PM 32.4181 -84.4128 180° South 402 463 37,000  Level Atlanta Center
04:06PM 32.3056 -84.4125 180° South 402 463 37,000  Level Atlanta Center
04:07PM 32.1928 -84.4069 178° South 402 463 37,000  Level Atlanta Center
04:08PM 32.0781 -84.4067 180° South 402 463 37,000  Level Atlanta Center
04:09PM 31.9631 -84.4036 179° South 402 463 37,000  Level Atlanta Center
04:09PM 31.8736 -84.4019 179° South 401 461 37,000  Level Jacksonville Center
04:10PM 31.7589 -84.4003 179° South 401 461 37,000  Level Jacksonville Center
04:11PM 31.6439 -84.3983 179° South 401 461 37,000  Level Jacksonville Center
04:12PM 31.5292 -84.3939 178° South 407 468 37,000  Level Jacksonville Center
04:13PM 31.4144 -84.3922 179° South 407 468 37,000  Level Jacksonville Center
04:14PM 31.3017 -84.3903 179° South 407 468 37,000  Level Jacksonville Center
04:15PM 31.1869 -84.3886 179° South 407 468 37,000  Level Jacksonville Center
04:16PM 31.0678 -84.3867 179° South 412 474 37,000  Level Jacksonville Center
04:17PM 30.9550 -84.3847 179° South 417 480 37,000  Level Jacksonville Center
04:18PM 30.8383 -84.3831 179° South 422 486 37,000  Level Jacksonville Center
04:19PM 30.7192 -84.3811 179° South 422 486 37,000  Level Jacksonville Center
04:20PM 30.6006 -84.3647 173° South 422 486 37,000  Level Jacksonville Center
04:21PM 30.4944 -84.3269 163° South 429 494 37,000  Level Jacksonville Center
04:22PM 30.3803 -84.2578 152° Southeast 445 512 37,000  Level Jacksonville Center
04:23PM 30.2558 -84.1792 151° Southeast 457 526 37,000  Level Jacksonville Center
04:24PM 30.1417 -84.1031 150° Southeast 464 534 37,000  Level Jacksonville Center
04:25PM 30.0275 -84.0297 151° Southeast 469 540 37,000  Level Jacksonville Center
04:26PM 29.9133 -83.9564 151° Southeast 469 540 37,000  Level Jacksonville Center
04:27PM 29.7992 -83.8811 150° Southeast 469 540 37,000  Level Jacksonville Center
04:28PM 29.6850 -83.8081 151° Southeast 469 540 37,000  Level Jacksonville Center
04:29PM 29.5728 -83.7356 151° Southeast 469 540 37,000  Level Jacksonville Center
04:30PM 29.4542 -83.6606 151° Southeast 469 540 37,000  Level Jacksonville Center
04:31PM 29.3397 -83.5881 151° Southeast 474 545 37,000  Level Jacksonville Center
04:32PM 29.2275 -83.5161 151° Southeast 474 545 37,000  Level Jacksonville Center
04:33PM 29.1108 -83.4417 151° Southeast 474 545 37,000  Level Jacksonville Center
04:34PM 28.9964 -83.3697 151° Southeast 474 545 37,000  Level Jacksonville Center
04:35PM 28.8817 -83.2981 151° Southeast 474 545 37,000  Level Jacksonville Center
04:41PM 28.2221 -82.8797 151° Southeast 487 560 37,000  Level FlightAware ADS-B (KMCO)
04:44PM 27.8854 -82.6703 151° Southeast 493 567 37,000  Level FlightAware ADS-B (KMCO)
04:44PM 27.8060 -82.6170 149° Southeast 499 574 37,000  Level FlightAware ADS-B (KMCO)
04:45PM 27.7314 -82.5666 149° Southeast 497 572 37,000  Level FlightAware ADS-B (KMCO)
04:46PM 27.6557 -82.5159 149° Southeast 494 568 37,000  Level FlightAware ADS-B (KMCO)
04:46PM 27.5882 -82.4711 150° Southeast 493 567 37,000  Level FlightAware ADS-B (KMCO)
04:47PM 27.4877 -82.4043 149° Southeast 491 565 37,000  Level FlightAware ADS-B (KMCO)
04:48PM 27.4077 -82.3514 150° Southeast 492 566 37,000  Level FlightAware ADS-B (KMCO)
04:48PM 27.3410 -82.3073 150° Southeast 493 567 37,000  Level FlightAware ADS-B (KMCO)
04:50PM 27.1375 -82.1730 150° Southeast 495 570 37,000  Level FlightAware ADS-B (KMCO)
04:51PM 27.0140 -82.0922 150° Southeast 491 565 37,000  Level FlightAware ADS-B (KMCO)
04:51PM 26.9734 -82.0752 160° South 471 542 37,000  Level FlightAware ADS-B (KMCO)
04:52PM 26.9334 -82.0690 172° South 451 519 37,000  Level FlightAware ADS-B (KMCO)
04:52PM 26.8896 -82.0722 184° South 426 490 37,000  Level FlightAware ADS-B (KMCO)
04:53PM 26.8177 -82.0836 188° South 422 486 37,000  Level FlightAware ADS-B (KMCO)
04:53PM 26.7340 -82.0966 188° South 422 486 37,000  Level FlightAware ADS-B (KMCO)
04:54PM 26.6591 -82.1084 188° South 423 487 37,000  Level FlightAware ADS-B (KMCO)
04:55PM 26.5920 -82.1191 188° South 423 487 37,000  Level FlightAware ADS-B (KMCO)
04:55PM 26.5020 -82.1333 188° South 424 488 37,000  Level FlightAware ADS-B (KMCO)
04:56PM 26.4247 -82.1455 188° South 425 489 37,000  Level FlightAware ADS-B (KMCO)
04:57PM 26.3468 -82.1577 188° South 426 490 37,000  Level FlightAware ADS-B (KMCO)
04:57PM 26.2721 -82.1694 188° South 426 490 37,000  Level FlightAware ADS-B (KMCO)
04:58PM 26.1913 -82.1821 188° South 425 489 37,000  Level FlightAware ADS-B (KMCO)
04:59PM 26.1101 -82.1947 188° South 427 491 37,000  Level FlightAware ADS-B (KMCO)
04:59PM 26.0452 -82.2049 188° South 428 493 37,000  Level FlightAware ADS-B (KMCO)
05:01PM 25.8551 -82.2345 188° South 428 493 37,000  Level FlightAware ADS-B (KMCO)
05:02PM 25.8017 -82.2444 188° South 438 504 37,000  Level Miami Center
05:03PM 25.6861 -82.2625 188° South 433 498 37,000  Level Miami Center
05:04PM 25.5664 -82.2825 189° South 433 498 37,000  Level Miami Center
05:05PM 25.4489 -82.3000 188° South 428 493 37,000  Level Miami Center
05:06PM 25.3292 -82.3178 188° South 428 493 37,000 -300 Level Miami Center
05:07PM 25.2117 -82.3378 189° South 428 493 36,400 -1,200 Descending Miami Center
05:08PM 25.0814 -82.3547 187° South 434 499 34,600 -1,860 Descending Miami Center
05:09PM 24.9597 -82.3722 187° South 434 499 32,700 -1,920 Descending Miami Center
05:10PM 24.8442 -82.3922 189° South 429 494 30,800 -1,800 Descending Miami Center
05:11PM 24.7328 -82.4100 188° South 424 488 29,100 -1,740 Descending Miami Center
05:12PM 24.6217 -82.4256 187° South 411 473 27,400 -1,740 Descending Miami Center
05:14PM 24.4053 -82.4592 188° South 396 456 23,900 -1,740 Descending Miami Center
05:15PM 24.3044 -82.4753 188° South 390 449 22,300 -960 Descending Miami Center
05:16PM 24.1994 -82.4911 188° South 383 441 22,000 -180 Descending Miami Center
05:17PM 24.0944 -82.5092 189° South 383 441 22,000 -60 Level Miami Center
05:18PM 23.9897 -82.5225 187° South 383 441 21,900 -1,140 Descending Miami Center
05:19PM 23.8744 -82.5333 185° South 398 458 19,800 -2,100 Descending Miami Center
05:21PM 23.6437 -82.4710 175° South  Level FlightAware Approximate
05:28PM 22.9891 -82.4091 180° South  Level Estimated
05:29PM 22.9891 -82.4091 180° South  Level Estimated
05:30PM 22.9891 -82.4091 180° South  Level Estimated
05:31PM 22.9891 -82.4091 180° South  Level Estimated
05:32PM 22.9891 -82.4091 180° South  Level Estimated
05:33PM 22.9891 -82.4091 180° South  Level Estimated
05:34PM 22.9891 -82.4091 180° South  Level Estimated
05:35PM 22.9891 -82.4091 180° South  Level Estimated
05:36PM 22.9891 -82.4091 180° South  Level Estimated
05:37PM 22.9891 -82.4091 180° South  Level Estimated
05:38PM 22.9891 -82.4091 180° South  Level Estimated
05:39PM 22.9891 -82.4091 180° South  Level Estimated
05:40PM 22.9891 -82.4091 180° South  Level Estimated
05:41PM 22.9891 -82.4091 180° South  Level Estimated
05:42PM 22.9891 -82.4091 180° South  Level Estimated
05:43PM 22.9891 -82.4091 180° South  Level Estimated
05:44PM 22.9891 -82.4091 180° South  Level Estimated
05:45PM 22.9891 -82.4091 180° South  Level Estimated
05:46PM 22.9891 -82.4091 180° South  Level Estimated
05:47PM 22.9891 -82.4091 180° South  Level Estimated
05:48PM 22.9891 -82.4091 180° South  Level Estimated